Home > Products > Valid Products > TAF

000
FTUS44 KMEG 270612 AAA
TAFMKL
TAF AMD
KMKL 270612Z 2706/2806 00000KT 1SM BR VV003
      TEMPO 2706/2710 1/4SM FG VV001
     FM271000 03006KT P6SM BKN250
     FM271400 04010KT P6SM SCT120 OVC250
     FM280000 03006KT P6SM BKN120 OVC250=



000
FTUS44 KMEG 270612 AAA
TAFMKL
TAF AMD
KMKL 270612Z 2706/2806 00000KT 1SM BR VV003
      TEMPO 2706/2710 1/4SM FG VV001
     FM271000 03006KT P6SM BKN250
     FM271400 04010KT P6SM SCT120 OVC250
     FM280000 03006KT P6SM BKN120 OVC250=



000
FTUS44 KMEG 270532
TAFMKL
TAF
KMKL 270532Z 2706/2806 00000KT 3SM BR SCT005 BKN250
      TEMPO 2706/2710 1SM BR VV005
     FM271000 03006KT P6SM BKN250
     FM271400 04010KT P6SM SCT120 OVC250
     FM280000 03006KT P6SM BKN120 OVC250=



000
FTUS44 KMEG 270532
TAFMEM
TAF
KMEM 270532Z 2706/2806 06012KT P6SM OVC250
     FM271400 06013G18KT P6SM BKN120 OVC250
     FM280000 03010KT P6SM SCT050 OVC100=



000
FTUS44 KMEG 270532
TAFJBR
TAF
KJBR 270532Z 2706/2806 04007KT P6SM OVC250
     FM271400 05012G18KT P6SM SCT120 OVC250
     FM280000 03007KT P6SM OVC100=



000
FTUS44 KMEG 270532
TAFTUP
TAF
KTUP 270532Z 2706/2806 04012KT P6SM OVC250
     FM271400 05012G18KT P6SM BKN120 OVC250
     FM280000 03009KT P6SM SCT050 OVC100=



000
FTUS44 KMEG 270303 AAB
TAFMEM
TAF AMD
KMEM 270303Z 2703/2724 05010KT P6SM FEW025
     FM270400 05012KT P6SM BKN250
     FM271400 06013G18KT P6SM BKN120 OVC250=



000
FTUS44 KMEG 270303 AAB
TAFMEM
TAF AMD
KMEM 270303Z 2703/2724 05010KT P6SM FEW025
     FM270400 05012KT P6SM BKN250
     FM271400 06013G18KT P6SM BKN120 OVC250=



000
FTUS44 KMEG 270239 AAA
TAFMEM
TAF AMD
KMEM 270239Z 2703/2724 05010KT P6SM SCT025
     FM270400 05012KT P6SM BKN250
     FM271400 06013G18KT P6SM BKN120 OVC250=



000
FTUS44 KMEG 270239 AAA
TAFMEM
TAF AMD
KMEM 270239Z 2703/2724 05010KT P6SM SCT025
     FM270400 05012KT P6SM BKN250
     FM271400 06013G18KT P6SM BKN120 OVC250=



000
FTUS44 KMEG 270238 AAB
TAFTUP
TAF AMD
KTUP 270238Z 2703/2724 04013G22KT P6SM OVC018
     FM270500 03010KT P6SM OVC250
     FM271400 05012G18KT P6SM BKN120 OVC250=



000
FTUS44 KMEG 270238 AAB
TAFTUP
TAF AMD
KTUP 270238Z 2703/2724 04013G22KT P6SM OVC018
     FM270500 03010KT P6SM OVC250
     FM271400 05012G18KT P6SM BKN120 OVC250=



000
FTUS44 KMEG 270132 AAA
TAFTUP
TAF AMD
KTUP 270132Z 2702/2724 04012G22KT P6SM BKN250
     FM270400 03010KT P6SM OVC250
     FM271400 05012G18KT P6SM BKN120 OVC250=



000
FTUS44 KMEG 270129 AAA
TAFJBR
TAF AMD
KJBR 270129Z 2701/2724 04008KT P6SM BKN250
     FM271400 05012G18KT P6SM SCT120 OVC250=



000
FTUS44 KMEG 270128 AAA
TAFMKL
TAF AMD
KMKL 270128Z 2701/2724 03006KT P6SM BKN250
     FM271400 04010KT P6SM SCT120 OVC250=



000
FTUS44 KMEG 270128 AAA
TAFMKL
TAF AMD
KMKL 270128Z 2701/2724 03006KT P6SM BKN250
     FM271400 04010KT P6SM SCT120 OVC250=



000
FTUS44 KMEG 262320
TAFJBR
TAF
KJBR 262320Z 2700/2724 05008KT P6SM BKN028
     FM270200 04009KT P6SM SCT030
     FM270400 04010KT P6SM BKN250
     FM271400 05012G18KT P6SM SCT120 OVC250=



000
FTUS44 KMEG 262320
TAFMEM
TAF
KMEM 262320Z 2700/2724 02009KT P6SM OVC025
     FM270200 02010KT P6SM BKN030
     FM270400 04012KT P6SM SCT040 BKN250
     FM270600 05012KT P6SM BKN250
     FM271400 06013G18KT P6SM BKN120 OVC250=



000
FTUS44 KMEG 262320
TAFJBR
TAF
KJBR 262320Z 2700/2724 05008KT P6SM BKN028
     FM270200 04009KT P6SM SCT030
     FM270400 04010KT P6SM BKN250
     FM271400 05012G18KT P6SM SCT120 OVC250=



000
FTUS44 KMEG 262320
TAFMKL
TAF
KMKL 262320Z 2700/2724 03008KT P6SM OVC023
     FM270100 02006KT P6SM BKN025
     FM270300 03006KT P6SM SCT035 BKN250
     FM270500 03006KT P6SM BKN250
     FM271400 04010KT P6SM SCT120 OVC250=



000
FTUS44 KMEG 262320
TAFMEM
TAF
KMEM 262320Z 2700/2724 02009KT P6SM OVC025
     FM270200 02010KT P6SM BKN030
     FM270400 04012KT P6SM SCT040 BKN250
     FM270600 05012KT P6SM BKN250
     FM271400 06013G18KT P6SM BKN120 OVC250=



000
FTUS44 KMEG 262320
TAFMKL
TAF
KMKL 262320Z 2700/2724 03008KT P6SM OVC023
     FM270100 02006KT P6SM BKN025
     FM270300 03006KT P6SM SCT035 BKN250
     FM270500 03006KT P6SM BKN250
     FM271400 04010KT P6SM SCT120 OVC250=



000
FTUS44 KMEG 262320
TAFTUP
TAF
KTUP 262320Z 2700/2724 04009KT P6SM SCT040 SCT250
      TEMPO 2700/2702 BKN040 BKN250
     FM270600 03008KT P6SM BKN250
     FM271400 05012G18KT P6SM BKN120 OVC250=



000
FTUS44 KMEG 262320
TAFTUP
TAF
KTUP 262320Z 2700/2724 04009KT P6SM SCT040 SCT250
      TEMPO 2700/2702 BKN040 BKN250
     FM270600 03008KT P6SM BKN250
     FM271400 05012G18KT P6SM BKN120 OVC250=



000
FTUS44 KMEG 262205 AAA
TAFJBR
TAF AMD
KJBR 262205Z 2622/2718 05009KT P6SM BKN025
     FM270200 04009KT P6SM SCT030
     FM270400 04010KT P6SM BKN250
     FM271400 05012G18KT P6SM SCT120 OVC250=



000
FTUS44 KMEG 262158 AAB
TAFMKL
TAF AMD
KMKL 262158Z 2622/2718 03008KT P6SM OVC022
     FM270100 02006KT P6SM BKN025
     FM270300 03006KT P6SM SCT035 BKN250
     FM270500 03006KT P6SM BKN250
     FM271400 04010KT P6SM SCT120 OVC250=



000
FTUS44 KMEG 262149 AAB
TAFMEM
TAF AMD
KMEM 262149Z 2622/2718 01009KT P6SM OVC025
     FM270200 02010KT P6SM BKN030
     FM270400 04012KT P6SM SCT040 BKN250
     FM270600 05012KT P6SM BKN250
     FM271400 06013G18KT P6SM BKN120 OVC250=



000
FTUS44 KMEG 262119 AAA
TAFMKL
TAF AMD
KMKL 262119Z 2621/2718 03009KT P6SM OVC022
     FM270100 02005KT P6SM SCT030
     FM270600 03005KT P6SM BKN250
     FM271500 04008KT P6SM OVC150=



000
FTUS44 KMEG 262058 AAA
TAFMEM
TAF AMD
KMEM 262058Z 2621/2718 01008KT P6SM BKN025
     FM262300 02009KT P6SM SCT025
     FM270600 05012KT P6SM BKN250
     FM271400 06012KT P6SM OVC120=



000
FTUS44 KMEG 261723
TAFJBR
TAF
KJBR 261723Z 2618/2718 04011KT P6SM OVC015
     FM262100 04010KT P6SM BKN025
     FM270100 04010KT P6SM SCT030
     FM270600 03010KT P6SM OVC250
     FM271500 05012KT P6SM OVC120=



000
FTUS44 KMEG 261723
TAFMEM
TAF
KMEM 261723Z 2618/2718 02009KT P6SM BKN015
     FM262200 04010KT P6SM SCT025
     FM270600 05012KT P6SM BKN250
     FM271400 06012KT P6SM OVC120=



000
FTUS44 KMEG 261723
TAFMKL
TAF
KMKL 261723Z 2618/2718 01010KT P6SM OVC012
     FM262100 01010KT P6SM BKN015
     FM270100 02005KT P6SM SCT030
     FM270600 03005KT P6SM BKN250
     FM271500 04008KT P6SM OVC150=



000
FTUS44 KMEG 261723
TAFJBR
TAF
KJBR 261723Z 2618/2718 04011KT P6SM OVC015
     FM262100 04010KT P6SM BKN025
     FM270100 04010KT P6SM SCT030
     FM270600 03010KT P6SM OVC250
     FM271500 05012KT P6SM OVC120=



000
FTUS44 KMEG 261723
TAFTUP
TAF
KTUP 261723Z 2618/2718 02008KT P6SM SCT030
     FM270000 03006KT P6SM SKC
     FM270600 03006KT P6SM BKN250
     FM271500 05009KT P6SM OVC150=



000
FTUS44 KMEG 261723
TAFTUP
TAF
KTUP 261723Z 2618/2718 02008KT P6SM SCT030
     FM270000 03006KT P6SM SKC
     FM270600 03006KT P6SM BKN250
     FM271500 05009KT P6SM OVC150=



000
FTUS44 KMEG 261723
TAFMEM
TAF
KMEM 261723Z 2618/2718 02009KT P6SM BKN015
     FM262200 04010KT P6SM SCT025
     FM270600 05012KT P6SM BKN250
     FM271400 06012KT P6SM OVC120=



000
FTUS44 KMEG 261723
TAFMKL
TAF
KMKL 261723Z 2618/2718 01010KT P6SM OVC012
     FM262100 01010KT P6SM BKN015
     FM270100 02005KT P6SM SCT030
     FM270600 03005KT P6SM BKN250
     FM271500 04008KT P6SM OVC150=



000
FTUS44 KMEG 261457 AAA
TAFMEM
TAF AMD
KMEM 261457Z 2615/2712 36009KT P6SM OVC011
     FM261700 02010KT P6SM BKN015
     FM261900 03010KT P6SM BKN025
     FM262100 04012KT P6SM SCT035
     FM270000 05012KT P6SM BKN250=



000
FTUS44 KMEG 261130
TAFMEM
TAF
KMEM 261130Z 2612/2712 02006KT P6SM SCT012
      TEMPO 2613/2617 OVC012
     FM261700 02010KT P6SM OVC025
     FM261900 03010G15KT P6SM BKN035
     FM262100 04012KT P6SM SCT035
     FM270000 05012KT P6SM BKN250=



000
FTUS44 KMEG 261130
TAFTUP
TAF
KTUP 261130Z 2612/2712 36005KT P6SM SKC
      TEMPO 2615/2617 BKN025
     FM261700 02008KT P6SM BKN035
     FM270000 04010KT P6SM BKN250=



000
FTUS44 KMEG 261130
TAFMKL
TAF
KMKL 261130Z 2612/2712 35007KT P6SM BKN030
      TEMPO 2612/2615 OVC012
     FM261500 02010KT P6SM OVC025
     FM261800 36010G15KT P6SM BKN035
     FM262100 36010KT P6SM SCT035
     FM270000 03006KT P6SM BKN250=



000
FTUS44 KMEG 261130
TAFJBR
TAF
KJBR 261130Z 2612/2712 03008KT P6SM OVC012
     FM261800 04010G15KT P6SM BKN025
     FM262100 04010KT P6SM BKN035
     FM270000 04010KT P6SM BKN250=



000
FTUS44 KMEG 261130
TAFTUP
TAF
KTUP 261130Z 2612/2712 36005KT P6SM SKC
      TEMPO 2615/2617 BKN025
     FM261700 02008KT P6SM BKN035
     FM270000 04010KT P6SM BKN250=



000
FTUS44 KMEG 261130
TAFJBR
TAF
KJBR 261130Z 2612/2712 03008KT P6SM OVC012
     FM261800 04010G15KT P6SM BKN025
     FM262100 04010KT P6SM BKN035
     FM270000 04010KT P6SM BKN250=



000
FTUS44 KMEG 261130
TAFMKL
TAF
KMKL 261130Z 2612/2712 35007KT P6SM BKN030
      TEMPO 2612/2615 OVC012
     FM261500 02010KT P6SM OVC025
     FM261800 36010G15KT P6SM BKN035
     FM262100 36010KT P6SM SCT035
     FM270000 03006KT P6SM BKN250=



000
FTUS44 KMEG 261130
TAFMEM
TAF
KMEM 261130Z 2612/2712 02006KT P6SM SCT012
      TEMPO 2613/2617 OVC012
     FM261700 02010KT P6SM OVC025
     FM261900 03010G15KT P6SM BKN035
     FM262100 04012KT P6SM SCT035
     FM270000 05012KT P6SM BKN250=



000
FTUS44 KMEG 260859 AAA
TAFMEM
TAF AMD
KMEM 260859Z 2609/2706 02006KT P6SM SKC
     FM261100 02006KT P6SM BKN012
      TEMPO 2612/2615 OVC006
     FM261500 02010KT P6SM OVC015
     FM261800 01012G20KT P6SM BKN025
     FM262100 02012G20KT P6SM BKN035
     FM270000 04010KT P6SM SCT250=



000
FTUS44 KMEG 260530
TAFTUP
TAF
KTUP 260530Z 2606/2706 25004KT P6SM SKC
     FM261200 32005KT P6SM BKN012
      TEMPO 2612/2615 BKN008
     FM261600 01008KT P6SM BKN020
     FM261900 02012G18KT P6SM SCT035
     FM270000 02009KT P6SM SCT250=



000
FTUS44 KMEG 260530
TAFJBR
TAF
KJBR 260530Z 2606/2706 27006KT P6SM SCT050
     FM260800 34009KT P6SM BKN015
      TEMPO 2610/2614 OVC008
     FM261400 03012G18KT P6SM OVC008
     FM261600 04012G18KT P6SM OVC015
     FM261800 04012G18KT P6SM BKN025
     FM262100 04010KT P6SM BKN035
     FM270000 04009KT P6SM SCT250=



000
FTUS44 KMEG 260530
TAFMKL
TAF
KMKL 260530Z 2606/2706 25006KT P6SM SCT050
     FM261000 35009KT P6SM BKN008
      TEMPO 2610/2614 OVC004
     FM261600 36012G18KT P6SM OVC015
     FM261900 36012G18KT P6SM BKN025
     FM262200 36012KT P6SM BKN035
     FM270000 02006KT P6SM SCT250=



000
FTUS44 KMEG 260530
TAFMEM
TAF
KMEM 260530Z 2606/2706 25006KT P6SM SKC
     FM261000 36006KT P6SM BKN012
      TEMPO 2611/2615 OVC006
     FM261500 02010KT P6SM OVC015
     FM261800 01012G20KT P6SM BKN025
     FM262100 02012G20KT P6SM BKN035
     FM270000 04010KT P6SM SCT250=



000
FTUS44 KMEG 260304 AAA
TAFMEM
TAF AMD
KMEM 260304Z 2603/2624 25006KT P6SM SKC
     FM261000 36006KT P6SM BKN012
      TEMPO 2611/2615 OVC006
     FM261500 02010KT P6SM OVC015
     FM261800 01012G20KT P6SM BKN025
     FM262100 02012G20KT P6SM BKN035=



000
FTUS44 KMEG 252320
TAFJBR
TAF
KJBR 252320Z 2600/2624 24012G20KT P6SM SKC
     FM260100 24008KT P6SM SKC
     FM260800 34009KT P6SM BKN015
      TEMPO 2610/2614 OVC008
     FM261400 03012G18KT P6SM OVC008
     FM261600 04012G18KT P6SM OVC015
     FM261800 04012G18KT P6SM BKN025
     FM262100 04010KT P6SM BKN035=



000
FTUS44 KMEG 252320
TAFMKL
TAF
KMKL 252320Z 2600/2624 24015G22KT P6SM SKC
     FM260100 25008KT P6SM SKC
     FM261000 35009KT P6SM BKN008
      TEMPO 2610/2614 OVC004
     FM261600 36012G18KT P6SM OVC015
     FM261900 36012G18KT P6SM BKN025
     FM262200 36012KT P6SM BKN035=



000
FTUS44 KMEG 252320
TAFMKL
TAF
KMKL 252320Z 2600/2624 24015G22KT P6SM SKC
     FM260100 25008KT P6SM SKC
     FM261000 35009KT P6SM BKN008
      TEMPO 2610/2614 OVC004
     FM261600 36012G18KT P6SM OVC015
     FM261900 36012G18KT P6SM BKN025
     FM262200 36012KT P6SM BKN035=



000
FTUS44 KMEG 252320
TAFTUP
TAF
KTUP 252320Z 2600/2624 25008KT P6SM SKC
     FM260400 25004KT P6SM SKC
     FM261200 32005KT P6SM BKN012
      TEMPO 2612/2615 BKN008
     FM261600 01008KT P6SM BKN020
     FM261900 02012G18KT P6SM SCT035=



000
FTUS44 KMEG 252320
TAFMEM
TAF
KMEM 252320Z 2600/2624 24012G18KT P6SM SKC
     FM260100 27006KT P6SM SKC
     FM261000 36006KT P6SM BKN012
      TEMPO 2611/2615 OVC006
     FM261500 02010KT P6SM OVC015
     FM261800 01012G20KT P6SM BKN025
     FM262100 02012G20KT P6SM BKN035=



000
FTUS44 KMEG 252320
TAFMEM
TAF
KMEM 252320Z 2600/2624 24012G18KT P6SM SKC
     FM260100 27006KT P6SM SKC
     FM261000 36006KT P6SM BKN012
      TEMPO 2611/2615 OVC006
     FM261500 02010KT P6SM OVC015
     FM261800 01012G20KT P6SM BKN025
     FM262100 02012G20KT P6SM BKN035=



000
FTUS44 KMEG 252320
TAFJBR
TAF
KJBR 252320Z 2600/2624 24012G20KT P6SM SKC
     FM260100 24008KT P6SM SKC
     FM260800 34009KT P6SM BKN015
      TEMPO 2610/2614 OVC008
     FM261400 03012G18KT P6SM OVC008
     FM261600 04012G18KT P6SM OVC015
     FM261800 04012G18KT P6SM BKN025
     FM262100 04010KT P6SM BKN035=



000
FTUS44 KMEG 252320
TAFTUP
TAF
KTUP 252320Z 2600/2624 25008KT P6SM SKC
     FM260400 25004KT P6SM SKC
     FM261200 32005KT P6SM BKN012
      TEMPO 2612/2615 BKN008
     FM261600 01008KT P6SM BKN020
     FM261900 02012G18KT P6SM SCT035=



000
FTUS44 KMEG 252213 AAB
TAFTUP
TAF AMD
KTUP 252213Z 2522/2618 25012G20KT P6SM FEW035
     FM260000 26008KT P6SM SKC
     FM261200 32005KT P6SM BKN012
      TEMPO 2612/2615 BKN008
     FM261600 34007KT P6SM BKN020=



000
FTUS44 KMEG 252056 AAA
TAFTUP
TAF AMD
KTUP 252056Z 2521/2618 24010KT P6SM SCT025
     FM260000 26008KT P6SM SKC
     FM261200 32005KT P6SM BKN012
      TEMPO 2612/2615 BKN008
     FM261600 34007KT P6SM BKN020=



000
FTUS44 KMEG 252056 AAA
TAFTUP
TAF AMD
KTUP 252056Z 2521/2618 24010KT P6SM SCT025
     FM260000 26008KT P6SM SKC
     FM261200 32005KT P6SM BKN012
      TEMPO 2612/2615 BKN008
     FM261600 34007KT P6SM BKN020=



000
FTUS44 KMEG 252055 AAA
TAFMEM
TAF AMD
KMEM 252055Z 2521/2618 24015G25KT P6SM SKC
     FM260000 25006KT P6SM SKC
     FM261000 33010KT P6SM BKN012
      TEMPO 2610/2614 OVC006
     FM261400 02009KT P6SM BKN015
     FM261600 02009KT P6SM BKN025=



000
FTUS44 KMEG 251730
TAFTUP
TAF
KTUP 251730Z 2518/2618 22010G20KT P6SM BKN015
     FM252000 24015G25KT P6SM SCT025
     FM260000 26008KT P6SM SKC
     FM261200 32005KT P6SM BKN012
      TEMPO 2612/2615 BKN008
     FM261600 34007KT P6SM BKN020=



000
FTUS44 KMEG 251730
TAFJBR
TAF
KJBR 251730Z 2518/2618 23018G28KT P6SM SKC
     FM260000 26010KT P6SM SKC
     FM260800 36012KT P6SM BKN015
      TEMPO 2610/2614 OVC008
     FM261400 02010KT P6SM BKN008
     FM261600 02010KT P6SM BKN015=



000
FTUS44 KMEG 251730
TAFMEM
TAF
KMEM 251730Z 2518/2618 22015G25KT P6SM SCT025
      TEMPO 2518/2519 BKN013
     FM260000 25006KT P6SM SKC
     FM261000 33010KT P6SM BKN012
      TEMPO 2610/2614 OVC006
     FM261400 02009KT P6SM BKN015
     FM261600 02009KT P6SM BKN025=



000
FTUS44 KMEG 251730
TAFMKL
TAF
KMKL 251730Z 2518/2618 23015G25KT P6SM BKN020
     FM251900 24015G25KT P6SM SCT025
     FM260000 26008KT P6SM SKC
     FM261000 33008KT P6SM BKN008
      TEMPO 2610/2614 OVC004
     FM261600 36008KT P6SM BKN015=



000
FTUS44 KMEG 251730
TAFMEM
TAF
KMEM 251730Z 2518/2618 22015G25KT P6SM SCT025
      TEMPO 2518/2519 BKN013
     FM260000 25006KT P6SM SKC
     FM261000 33010KT P6SM BKN012
      TEMPO 2610/2614 OVC006
     FM261400 02009KT P6SM BKN015
     FM261600 02009KT P6SM BKN025=



000
FTUS44 KMEG 251730
TAFJBR
TAF
KJBR 251730Z 2518/2618 23018G28KT P6SM SKC
     FM260000 26010KT P6SM SKC
     FM260800 36012KT P6SM BKN015
      TEMPO 2610/2614 OVC008
     FM261400 02010KT P6SM BKN008
     FM261600 02010KT P6SM BKN015=



000
FTUS44 KMEG 251730
TAFTUP
TAF
KTUP 251730Z 2518/2618 22010G20KT P6SM BKN015
     FM252000 24015G25KT P6SM SCT025
     FM260000 26008KT P6SM SKC
     FM261200 32005KT P6SM BKN012
      TEMPO 2612/2615 BKN008
     FM261600 34007KT P6SM BKN020=



000
FTUS44 KMEG 251730
TAFMKL
TAF
KMKL 251730Z 2518/2618 23015G25KT P6SM BKN020
     FM251900 24015G25KT P6SM SCT025
     FM260000 26008KT P6SM SKC
     FM261000 33008KT P6SM BKN008
      TEMPO 2610/2614 OVC004
     FM261600 36008KT P6SM BKN015=



000
FTUS44 KMEG 251508 AAA
TAFMEM
TAF AMD
KMEM 251508Z 2515/2612 22015G23KT P6SM OVC007
     FM251800 23020G30KT P6SM SCT025
     FM260000 25010KT P6SM SCT060
      TEMPO 2610/2612 36010KT BKN012 OVC060=



000
FTUS44 KMEG 251323 AAA
TAFTUP
TAF AMD
KTUP 251323Z 2513/2612 20010KT P6SM SCT004 BKN250
      TEMPO 2513/2516 OVC004
     FM251600 23016G26KT P6SM SCT025 BKN250
     FM252100 24015G25KT P6SM VCTS SCT035CB
     FM260000 26008KT P6SM SCT060=



000
FTUS44 KMEG 251323 AAA
TAFTUP
TAF AMD
KTUP 251323Z 2513/2612 20010KT P6SM SCT004 BKN250
      TEMPO 2513/2516 OVC004
     FM251600 23016G26KT P6SM SCT025 BKN250
     FM252100 24015G25KT P6SM VCTS SCT035CB
     FM260000 26008KT P6SM SCT060=



000
FTUS44 KMEG 251130
TAFMEM
TAF
KMEM 251130Z 2512/2612 18015G23KT P6SM SCT006 BKN250
      TEMPO 2512/2516 BKN006 BKN250
     FM251600 23020G30KT P6SM SCT025
     FM260000 25010KT P6SM SCT060
      TEMPO 2610/2612 36010KT BKN012 OVC060=



000
FTUS44 KMEG 251130
TAFJBR
TAF
KJBR 251130Z 2512/2612 20012G18KT P6SM OVC007
     FM251400 23015G25KT P6SM SCT025
     FM260000 26010KT P6SM SCT060
     FM260700 36012KT P6SM BKN040
      TEMPO 2608/2612 BKN008 OVC012=



000
FTUS44 KMEG 251130
TAFTUP
TAF
KTUP 251130Z 2512/2612 18010KT P6SM SCT008 BKN250
      TEMPO 2512/2516 BKN008 BKN250
     FM251600 23016G26KT P6SM SCT025 BKN250
     FM252100 24015G25KT P6SM VCTS SCT035CB
     FM260000 26008KT P6SM SCT060=



000
FTUS44 KMEG 251130
TAFMKL
TAF
KMKL 251130Z 2512/2612 19010KT P6SM SCT009 SCT012 BKN250
      TEMPO 2512/2515 BKN010
     FM251500 24015G22KT P6SM SCT025
     FM260000 26010KT P6SM SCT060
      TEMPO 2608/2612 34006KT BKN008 OVC012=



000
FTUS44 KMEG 250901 AAB
TAFMEM
TAF AMD
KMEM 250901Z 2509/2606 17010KT P6SM SCT007 OVC040
     FM251000 18015G23KT P6SM OVC008
     FM251600 23020G30KT P6SM SCT025
     FM260000 25012KT P6SM SKC=



000
FTUS44 KMEG 250901 AAA
TAFMKL
TAF AMD
KMKL 250901Z 2509/2606 16010KT P6SM SCT010 OVC060
     FM251000 19015G22KT P6SM SCT008 OVC012
      TEMPO 2510/2514 BKN008 OVC012
     FM251700 24020G30KT P6SM SCT025
     FM260000 23013KT P6SM SKC=



000
FTUS44 KMEG 250901 AAB
TAFMEM
TAF AMD
KMEM 250901Z 2509/2606 17010KT P6SM SCT007 OVC040
     FM251000 18015G23KT P6SM OVC008
     FM251600 23020G30KT P6SM SCT025
     FM260000 25012KT P6SM SKC=



000
FTUS44 KMEG 250856 AAA
TAFTUP
TAF AMD
KTUP 250856Z 2509/2606 16010KT 6SM -SHRA BR SCT007 OVC060
      TEMPO 2509/2512 OVC008
     FM251200 23012G18KT P6SM SCT008 OVC012
     FM251700 25017G27KT P6SM SCT025
     FM260000 24008KT P6SM SKC=



000
FTUS44 KMEG 250856 AAA
TAFTUP
TAF AMD
KTUP 250856Z 2509/2606 16010KT 6SM -SHRA BR SCT007 OVC060
      TEMPO 2509/2512 OVC008
     FM251200 23012G18KT P6SM SCT008 OVC012
     FM251700 25017G27KT P6SM SCT025
     FM260000 24008KT P6SM SKC=



000
FTUS44 KMEG 250635 AAA
TAFMEM
TAF AMD
KMEM 250635Z 2507/2606 15010KT 6SM -SHRA BR VCTS SCT007 OVC040CB
      TEMPO 2507/2509 BKN007 OVC015CB
     FM250900 18015G23KT P6SM VCSH OVC008
     FM251600 23020G30KT P6SM SCT025
     FM260000 25012KT P6SM SKC=



000
FTUS44 KMEG 250635 AAA
TAFMEM
TAF AMD
KMEM 250635Z 2507/2606 15010KT 6SM -SHRA BR VCTS SCT007 OVC040CB
      TEMPO 2507/2509 BKN007 OVC015CB
     FM250900 18015G23KT P6SM VCSH OVC008
     FM251600 23020G30KT P6SM SCT025
     FM260000 25012KT P6SM SKC=



000
FTUS44 KMEG 250530
TAFMEM
TAF
KMEM 250530Z 2506/2606 15010KT 6SM -SHRA BR VCTS SCT007 BKN015CB
      OVC040
      TEMPO 2506/2509 1 1/2SM +SHRA BKN007 OVC015
     FM250900 18015G23KT P6SM VCTS SCT008 OVC012CB
      TEMPO 2509/2513 5SM -SHRA BR BKN008 OVC012
     FM251600 23020G30KT P6SM SCT025
     FM260000 25012KT P6SM SKC=



000
FTUS44 KMEG 250530
TAFMKL
TAF
KMKL 250530Z 2506/2606 16008KT 6SM -SHRA BR VCTS SCT010 BKN025CB
      OVC050
      TEMPO 2506/2510 4SM -SHRA BR BKN010 OVC025
     FM251000 19015G22KT P6SM VCTS SCT008 OVC012CB
      TEMPO 2510/2514 5SM -SHRA BR BKN008 OVC012
     FM251700 24020G30KT P6SM SCT025
     FM260000 23013KT P6SM SKC=



000
FTUS44 KMEG 250530
TAFTUP
TAF
KTUP 250530Z 2506/2606 12007KT 6SM -SHRA BR VCTS SCT015CB OVC040
      TEMPO 2506/2508 4SM -TSRA BR BKN015CB OVC040
     FM250800 16010KT 5SM -SHRA BR VCTS SCT007 OVC015CB
      TEMPO 2508/2512 1 1/2SM +TSRA OVC007CB
     FM251200 23012G18KT P6SM VCTS SCT008 OVC012CB
      TEMPO 2512/2515 5SM -SHRA BKN008 OVC012
     FM251700 25017G27KT P6SM SCT025
     FM260000 24008KT P6SM SKC=



000
FTUS44 KMEG 250530
TAFJBR
TAF
KJBR 250530Z 2506/2606 17015G22KT 6SM -SHRA BR OVC005
     FM250700 18015G22KT P6SM VCTS OVC006CB
      TEMPO 2507/2509 5SM -SHRA OVC005
     FM251400 23023G33KT P6SM SCT025
     FM260000 23012KT P6SM SKC
     FM260300 24012KT P6SM BKN040=



000
FTUS44 KMEG 250402 AAD
TAFJBR
TAF AMD
KJBR 250402Z 2504/2524 17015G22KT 6SM -SHRA BR OVC005
     FM250700 18015G22KT P6SM VCTS OVC006CB
      TEMPO 2507/2509 5SM -SHRA OVC005
     FM251400 23023G33KT P6SM SCT025=



000
FTUS44 KMEG 250402 AAD
TAFJBR
TAF AMD
KJBR 250402Z 2504/2524 17015G22KT 6SM -SHRA BR OVC005
     FM250700 18015G22KT P6SM VCTS OVC006CB
      TEMPO 2507/2509 5SM -SHRA OVC005
     FM251400 23023G33KT P6SM SCT025=



000
FTUS44 KMEG 250305 AAC
TAFJBR
TAF AMD
KJBR 250305Z 2503/2524 17012G18KT 6SM -SHRA BR OVC004
     FM250700 18012G18KT P6SM VCTS OVC006CB
     FM251400 23023G33KT P6SM SCT025=



000
FTUS44 KMEG 250255 AAC
TAFMEM
TAF AMD
KMEM 250255Z 2503/2524 12007KT 4SM -SHRA BR VCTS SCT007 BKN018CB
      OVC030
      TEMPO 2503/2506 1 1/2SM +SHRA BR OVC012
     FM250600 15010KT 3SM -SHRA BR VCTS OVC007CB
     FM250900 18015G23KT P6SM VCTS SCT008 BKN012CB
      TEMPO 2509/2513 5SM -TSRA BKN008CB
     FM251600 23020G30KT P6SM SCT025=



000
FTUS44 KMEG 250217 AAB
TAFJBR
TAF AMD
KJBR 250217Z 2502/2524 17010KT 6SM -SHRA BR BKN006 OVC015
     FM250700 18012KT P6SM VCTS OVC006CB
      TEMPO 2507/2511 5SM -TSRA
     FM251400 23023G33KT P6SM SCT025=



000
FTUS44 KMEG 250146 AAB
TAFMEM
TAF AMD
KMEM 250146Z 2502/2524 12007KT 5SM -SHRA BR VCTS BKN025CB OVC040
      TEMPO 2502/2506 1 1/2SM +SHRA BR OVC012
     FM250600 15010KT 3SM -SHRA BR VCTS OVC008CB
     FM250900 18015G23KT P6SM VCTS SCT008 BKN012CB
      TEMPO 2509/2513 5SM -TSRA BKN008CB
     FM251600 23020G30KT P6SM SCT025=



000
FTUS44 KMEG 250034 AAA
TAFMEM
TAF AMD
KMEM 250034Z 2501/2524 12007KT 6SM -SHRA BR SCT025 OVC100
      TEMPO 2501/2503 BKN025 OVC100
     FM250300 15010KT 5SM -SHRA BR VCTS OVC008CB
     FM250900 18015G23KT P6SM VCTS SCT008 BKN012CB
      TEMPO 2509/2513 5SM -TSRA BKN008CB
     FM251600 23020G30KT P6SM SCT025=



000
FTUS44 KMEG 250034 AAA
TAFMEM
TAF AMD
KMEM 250034Z 2501/2524 12007KT 6SM -SHRA BR SCT025 OVC100
      TEMPO 2501/2503 BKN025 OVC100
     FM250300 15010KT 5SM -SHRA BR VCTS OVC008CB
     FM250900 18015G23KT P6SM VCTS SCT008 BKN012CB
      TEMPO 2509/2513 5SM -TSRA BKN008CB
     FM251600 23020G30KT P6SM SCT025=



000
FTUS44 KMEG 250033 AAA
TAFJBR
TAF AMD
KJBR 250033Z 2501/2524 14007KT 6SM -SHRA BR OVC015
     FM250400 16010KT 5SM -SHRA BR VCTS OVC015CB
     FM250700 18012KT P6SM VCTS OVC008CB
      TEMPO 2507/2511 5SM -TSRA OVC007CB
     FM251400 23023G33KT P6SM SCT025=



000
FTUS44 KMEG 250033 AAA
TAFJBR
TAF AMD
KJBR 250033Z 2501/2524 14007KT 6SM -SHRA BR OVC015
     FM250400 16010KT 5SM -SHRA BR VCTS OVC015CB
     FM250700 18012KT P6SM VCTS OVC008CB
      TEMPO 2507/2511 5SM -TSRA OVC007CB
     FM251400 23023G33KT P6SM SCT025=



000
FTUS44 KMEG 242325
TAFMEM
TAF
KMEM 242325Z 2500/2524 12007KT 6SM -SHRA BR BKN025 OVC100
     FM250300 15010KT 5SM -SHRA BR VCTS OVC008CB
     FM250900 18015G23KT P6SM VCTS SCT008 BKN012CB
      TEMPO 2509/2513 5SM -TSRA BKN008CB
     FM251600 23020G30KT P6SM SCT025=



000
FTUS44 KMEG 242325
TAFTUP
TAF
KTUP 242325Z 2500/2524 09007KT P6SM SCT035 OVC120
      TEMPO 2500/2502 6SM -SHRA
     FM250200 12007KT 6SM -SHRA BR VCTS BKN035CB OVC080
     FM250800 16010KT 5SM -SHRA BR VCTS OVC015CB
      TEMPO 2508/2512 3SM -TSRA OVC008CB
     FM251200 23012G18KT P6SM VCTS SCT008 BKN012CB
      TEMPO 2512/2515 5SM -TSRA BKN008CB OVC012
     FM251700 25017G27KT P6SM SCT025=



000
FTUS44 KMEG 242325
TAFMKL
TAF
KMKL 242325Z 2500/2524 12006KT 6SM -SHRA BR SCT035 OVC100
     FM250400 15008KT 5SM -SHRA BR VCTS BKN025CB OVC050
     FM251000 19015G22KT P6SM VCTS SCT008 BKN012CB
      TEMPO 2510/2514 5SM -TSRA BKN008CB
     FM251700 24020G30KT P6SM SCT025=



000
FTUS44 KMEG 242325
TAFJBR
TAF
KJBR 242325Z 2500/2524 12007KT 6SM -SHRA BR OVC022
     FM250400 16010KT 5SM -SHRA BR VCTS OVC015CB
     FM250700 18012KT P6SM VCTS OVC008CB
      TEMPO 2507/2511 5SM -TSRA OVC007CB
     FM251400 23023G33KT P6SM SCT025=



000
FTUS44 KMEG 242105 AAC
TAFMEM
TAF AMD
KMEM 242105Z 2421/2518 10005KT P6SM -SHRA OVC028
     FM250000 11006KT 6SM -SHRA BR BKN025 OVC100
     FM250300 15010KT 5SM -SHRA BR VCTS OVC008CB
     FM250900 18015KT P6SM VCTS SCT008 BKN012CB
      TEMPO 2509/2513 5SM -TSRA BKN008CB
     FM251600 22015G25KT P6SM SCT025=



000
FTUS44 KMEG 242105 AAC
TAFMEM
TAF AMD
KMEM 242105Z 2421/2518 10005KT P6SM -SHRA OVC028
     FM250000 11006KT 6SM -SHRA BR BKN025 OVC100
     FM250300 15010KT 5SM -SHRA BR VCTS OVC008CB
     FM250900 18015KT P6SM VCTS SCT008 BKN012CB
      TEMPO 2509/2513 5SM -TSRA BKN008CB
     FM251600 22015G25KT P6SM SCT025=



000
FTUS44 KMEG 242056 AAB
TAFMEM
TAF AMD
KMEM 242056Z 2421/2518 10005KT P6SM -SHRA VCTS OVC035CB
     FM250000 11006KT 6SM -SHRA BR BKN025 OVC100
     FM250300 15010KT 5SM -SHRA BR VCTS OVC008CB
     FM250900 18015KT P6SM VCTS SCT008 BKN012CB
      TEMPO 2509/2513 5SM -TSRA BKN008CB
     FM251600 22015G25KT P6SM SCT025=



000
FTUS44 KMEG 242050 AAC
TAFTUP
TAF AMD
KTUP 242050Z 2421/2518 18005KT 6SM -SHRA BR VCTS BKN035CB OVC080
     FM250800 18010KT 5SM -SHRA BR VCTS OVC015CB
      TEMPO 2508/2512 3SM -TSRA OVC008CB
     FM251200 18015KT P6SM VCTS SCT008 BKN012CB
      TEMPO 2512/2515 5SM -TSRA BKN008CB
     FM251700 22015G25KT P6SM VCTS BKN025CB BKN100=



000
FTUS44 KMEG 242048 AAA
TAFJBR
TAF AMD
KJBR 242048Z 2421/2518 08007KT P6SM -SHRA BKN025 OVC035
     FM250000 10007KT 5SM -SHRA BR VCTS OVC025CB
     FM250400 14008KT 5SM -SHRA BR VCTS OVC015CB
     FM250700 17012KT P6SM VCTS OVC008CB
      TEMPO 2507/2511 5SM -TSRA BKN008CB
     FM251400 22015G25KT P6SM SCT025=



000
FTUS44 KMEG 242046 AAB
TAFMKL
TAF AMD
KMKL 242046Z 2421/2518 10005KT P6SM -SHRA OVC050
     FM250000 11006KT 5SM -SHRA BR VCTS BKN035CB OVC100
     FM250400 13008KT 5SM -SHRA BR VCTS BKN025CB OVC050
     FM251000 17015KT P6SM VCTS SCT008 BKN012CB
      TEMPO 2510/2514 5SM -TSRA BKN008CB
     FM251700 22015G25KT P6SM VCTS BKN025CB BKN100=



000
FTUS44 KMEG 242046 AAB
TAFMKL
TAF AMD
KMKL 242046Z 2421/2518 10005KT P6SM -SHRA OVC050
     FM250000 11006KT 5SM -SHRA BR VCTS BKN035CB OVC100
     FM250400 13008KT 5SM -SHRA BR VCTS BKN025CB OVC050
     FM251000 17015KT P6SM VCTS SCT008 BKN012CB
      TEMPO 2510/2514 5SM -TSRA BKN008CB
     FM251700 22015G25KT P6SM VCTS BKN025CB BKN100=



000
FTUS44 KMEG 242007 AAB
TAFTUP
TAF AMD
KTUP 242007Z 2420/2518 17008KT P6SM VCSH BKN040 OVC200
      TEMPO 2420/2423 5SM -TSRA BKN025CB
     FM242300 18005KT 5SM -SHRA BR VCTS OVC035CB
      TEMPO 2508/2512 3SM -TSRA OVC008CB
     FM251200 18015KT P6SM VCTS SCT008 BKN012CB
      TEMPO 2512/2515 5SM -TSRA BKN008CB
     FM251700 22015G25KT P6SM VCTS BKN025CB BKN100=



000
FTUS44 KMEG 241956 AAA
TAFMKL
TAF AMD
KMKL 241956Z 2420/2518 12007KT P6SM -SHRA OVC050
      TEMPO 2420/2424 5SM -TSRA OVC035CB
     FM250000 14006KT 5SM -SHRA BR VCTS BKN025CB OVC100
     FM251000 17015KT P6SM VCTS SCT008 BKN012CB
      TEMPO 2510/2514 5SM -TSRA BKN008CB
     FM251700 22015G25KT P6SM VCTS BKN025CB BKN100=



000
FTUS44 KMEG 241954 AAA
TAFMEM
TAF AMD
KMEM 241954Z 2420/2518 14010KT P6SM -SHRA OVC050
      TEMPO 2420/2424 5SM -TSRA OVC035CB
     FM250000 15006KT 6SM -SHRA BR BKN025 OVC100
     FM250300 15010KT 5SM -SHRA BR VCTS OVC008CB
     FM250900 18015KT P6SM VCTS SCT008 BKN012CB
      TEMPO 2509/2513 5SM -TSRA BKN008CB
     FM251600 22015G25KT P6SM SCT025=



000
FTUS44 KMEG 241751 AAA
TAFTUP
TAF AMD
KTUP 241751Z 2418/2518 15008KT P6SM VCSH BKN040 OVC200
      TEMPO 2419/2423 5SM -TSRA BKN025CB
     FM242300 18005KT 5SM -SHRA BR VCTS OVC035CB
      TEMPO 2506/2510 5SM -TSRA OVC008CB
     FM251000 18015KT P6SM VCTS SCT008 BKN012CB
      TEMPO 2511/2515 5SM -TSRA BKN008CB
     FM251700 22015G25KT P6SM VCTS BKN025CB BKN100=



000
FTUS44 KMEG 241745
TAFTUP
TAF
KTUP 241745Z 2418/2518 14008KT P6SM VCSH BKN040 OVC200
     FM242300 18005KT 5SM -SHRA BR VCTS OVC035CB
      TEMPO 2506/2510 5SM -TSRA OVC008CB
     FM251000 18015KT P6SM VCTS SCT008 BKN012CB
      TEMPO 2511/2515 5SM -TSRA BKN008CB
     FM251700 22015G25KT P6SM VCTS BKN025CB BKN100=



000
FTUS44 KMEG 241745
TAFJBR
TAF
KJBR 241745Z 2418/2518 12007KT P6SM VCSH OVC050
     FM242300 14005KT 5SM -SHRA BR VCTS OVC015CB
      TEMPO 2500/2504 5SM -TSRA OVC008CB
     FM250400 14008KT 5SM -SHRA BR VCTS OVC008CB
     FM250700 17012KT P6SM VCTS OVC008CB
      TEMPO 2507/2511 5SM -TSRA BKN008CB
     FM251400 22015G25KT P6SM SCT025=



000
FTUS44 KMEG 241745
TAFMKL
TAF
KMKL 241745Z 2418/2518 12008KT P6SM VCSH BKN070 OVC100
      TEMPO 2419/2423 5SM -TSRA OVC025CB
     FM242300 15006KT 5SM -SHRA BR VCTS BKN025CB OVC100
     FM251000 18015KT P6SM VCTS SCT008 BKN012CB
      TEMPO 2510/2514 5SM -TSRA BKN008CB
     FM251700 22015G25KT P6SM VCTS BKN025CB BKN100=



000
FTUS44 KMEG 241745
TAFMEM
TAF
KMEM 241745Z 2418/2518 14010KT P6SM VCSH OVC040
      TEMPO 2418/2422 4SM -TSRA OVC025CB
     FM242200 15006KT 6SM -SHRA BR BKN025 OVC100
     FM250300 15010KT 5SM -SHRA BR VCTS OVC008CB
     FM250900 18015KT P6SM VCTS SCT008 BKN012CB
      TEMPO 2509/2513 5SM -TSRA BKN008CB
     FM251600 22015G25KT P6SM SCT025=



000
FTUS44 KMEG 241501 AAA
TAFMEM
TAF AMD
KMEM 241501Z 2415/2512 13007KT P6SM SCT120 OVC250
     FM241600 14010KT P6SM VCSH OVC040
      TEMPO 2418/2422 3SM -TSRA OVC025CB
     FM242300 15006KT 6SM -SHRA OVC025
     FM250300 14007KT 5SM -TSRA BR OVC008CB
     FM250900 18015KT P6SM SCT008 BKN012=



000
FTUS44 KMEG 241130
TAFJBR
TAF
KJBR 241130Z 2412/2512 06008KT P6SM OVC200
     FM241500 14010KT P6SM VCSH OVC050
      TEMPO 2416/2419 4SM -TSRA OVC030CB
     FM241900 12006KT P6SM VCSH OVC035
     FM250000 14005KT P6SM VCTS OVC015CB
      TEMPO 2500/2502 5SM -TSRA OVC008CB
     FM250200 14008KT 5SM -TSRA BR OVC008CB
     FM250700 17012KT P6SM OVC008=



000
FTUS44 KMEG 241130
TAFTUP
TAF
KTUP 241130Z 2412/2512 12006KT P6SM BKN250
     FM241800 14008KT P6SM BKN050 BKN200
     FM250000 18005KT P6SM VCSH OVC035
     FM250600 15008KT P6SM VCTS OVC015CB
      TEMPO 2506/2510 5SM -TSRA OVC008CB
     FM251000 17010KT 5SM -TSRA BR OVC008CB=



000
FTUS44 KMEG 241130
TAFTUP
TAF
KTUP 241130Z 2412/2512 12006KT P6SM BKN250
     FM241800 14008KT P6SM BKN050 BKN200
     FM250000 18005KT P6SM VCSH OVC035
     FM250600 15008KT P6SM VCTS OVC015CB
      TEMPO 2506/2510 5SM -TSRA OVC008CB
     FM251000 17010KT 5SM -TSRA BR OVC008CB=



000
FTUS44 KMEG 241130
TAFMEM
TAF
KMEM 241130Z 2412/2512 12008KT P6SM OVC200
     FM241600 14010KT P6SM VCSH OVC040
      TEMPO 2419/2423 5SM -TSRA OVC030CB
     FM242300 15006KT 6SM -SHRA OVC025
     FM250300 14007KT 5SM -TSRA BR OVC008CB
     FM250900 18015KT P6SM SCT008 BKN012=



000
FTUS44 KMEG 241130
TAFMKL
TAF
KMKL 241130Z 2412/2512 10005KT P6SM BKN250
     FM241800 12008KT P6SM OVC050
     FM250000 15006KT P6SM VCSH OVC035
      TEMPO 2504/2506 5SM -TSRA OVC008CB
     FM250600 15007KT 5SM -TSRA OVC008CB
     FM251000 18012KT P6SM SCT008 BKN012=



000
FTUS44 KMEG 241130
TAFJBR
TAF
KJBR 241130Z 2412/2512 06008KT P6SM OVC200
     FM241500 14010KT P6SM VCSH OVC050
      TEMPO 2416/2419 4SM -TSRA OVC030CB
     FM241900 12006KT P6SM VCSH OVC035
     FM250000 14005KT P6SM VCTS OVC015CB
      TEMPO 2500/2502 5SM -TSRA OVC008CB
     FM250200 14008KT 5SM -TSRA BR OVC008CB
     FM250700 17012KT P6SM OVC008=



000
FTUS44 KMEG 241130
TAFMKL
TAF
KMKL 241130Z 2412/2512 10005KT P6SM BKN250
     FM241800 12008KT P6SM OVC050
     FM250000 15006KT P6SM VCSH OVC035
      TEMPO 2504/2506 5SM -TSRA OVC008CB
     FM250600 15007KT 5SM -TSRA OVC008CB
     FM251000 18012KT P6SM SCT008 BKN012=



000
FTUS44 KMEG 241130
TAFMEM
TAF
KMEM 241130Z 2412/2512 12008KT P6SM OVC200
     FM241600 14010KT P6SM VCSH OVC040
      TEMPO 2419/2423 5SM -TSRA OVC030CB
     FM242300 15006KT 6SM -SHRA OVC025
     FM250300 14007KT 5SM -TSRA BR OVC008CB
     FM250900 18015KT P6SM SCT008 BKN012=



000
FTUS44 KMEG 240859 AAA
TAFMEM
TAF AMD
KMEM 240859Z 2409/2506 11006KT P6SM OVC250
     FM241500 14010KT P6SM OVC050
     FM242100 15006KT P6SM VCSH OVC025
     FM250000 18007KT P6SM VCTS OVC025CB
      TEMPO 2502/2506 3SM -TSRA OVC015CB=



    US Dept of Commerce
    National Oceanic and Atmospheric Administration
    National Weather Service
    1325 East West Highway
    Silver Spring, MD 20910
    Page Author: NWS Internet Services Team
Disclaimer
Information Quality
Credits
Glossary
Privacy Policy
Freedom of Information Act (FOIA)
About Us
Career Opportunities